createdAt,value
2019-02-04T00:00:56.381Z,-0.6
2019-02-04T00:01:58.130Z,-0.5
2019-02-04T00:02:58.880Z,-0.3
2019-02-04T00:03:59.602Z,-0.3
2019-02-04T00:05:00.391Z,-0.3
2019-02-04T00:06:01.103Z,-0.4
2019-02-04T00:07:01.806Z,-0.4
2019-02-04T00:08:02.515Z,-0.4
2019-02-04T00:09:03.208Z,-0.3
2019-02-04T00:10:03.905Z,-0.3
2019-02-04T00:11:04.610Z,-0.3
2019-02-04T00:12:05.365Z,-0.4
2019-02-04T00:13:06.071Z,-0.3
2019-02-04T00:14:06.776Z,-0.3
2019-02-04T00:15:07.479Z,-0.3
2019-02-04T00:16:08.180Z,-0.3
2019-02-04T00:17:08.939Z,-0.3
2019-02-04T00:18:09.644Z,-0.3
2019-02-04T00:19:10.354Z,-0.3
2019-02-04T00:20:11.070Z,-0.3
2019-02-04T00:21:11.778Z,-0.4
2019-02-04T00:22:12.491Z,-0.5
2019-02-04T00:23:13.194Z,-0.5
2019-02-04T00:24:13.900Z,-0.3
2019-02-04T00:25:14.607Z,-0.4
2019-02-04T00:26:15.312Z,-0.4
2019-02-04T00:27:16.844Z,-0.4
2019-02-04T00:28:17.758Z,-0.5
2019-02-04T00:29:18.459Z,-0.4
2019-02-04T00:30:19.168Z,-0.6
2019-02-04T00:31:19.885Z,-0.5
2019-02-04T00:32:20.573Z,-0.6
2019-02-04T00:33:21.292Z,-0.6
2019-02-04T00:34:21.994Z,-0.7
2019-02-04T00:35:22.698Z,-0.7
2019-02-04T00:36:23.418Z,-0.8
2019-02-04T00:37:24.174Z,-0.8
2019-02-04T00:38:24.882Z,-0.8
2019-02-04T00:39:25.583Z,-0.9
2019-02-04T00:40:26.279Z,-0.9
2019-02-04T00:41:26.989Z,-0.9
2019-02-04T00:42:27.807Z,-0.9
2019-02-04T00:43:28.516Z,-1.0
2019-02-04T00:44:29.228Z,-0.9
2019-02-04T00:45:30.202Z,-1.0
2019-02-04T00:46:30.900Z,-0.9
2019-02-04T00:47:31.653Z,-0.9
2019-02-04T00:48:32.356Z,-0.9
2019-02-04T00:49:33.061Z,-1.0
2019-02-04T00:50:34.064Z,-1.0
2019-02-04T00:51:34.759Z,-0.9
2019-02-04T00:52:35.477Z,-0.9
2019-02-04T00:53:36.280Z,-0.9
2019-02-04T00:54:36.991Z,-0.9
2019-02-04T00:55:38.332Z,-0.8
2019-02-04T00:56:40.116Z,-0.9
2019-02-04T00:57:40.821Z,-0.9
2019-02-04T00:58:41.675Z,-0.9
2019-02-04T00:59:42.443Z,-1.0
2019-02-04T01:00:43.196Z,-1.0
2019-02-04T01:01:43.914Z,-0.9
2019-02-04T01:02:44.619Z,-0.9
2019-02-04T01:03:45.331Z,-1.0
2019-02-04T01:04:46.069Z,-0.9
2019-02-04T01:05:46.780Z,-0.9
2019-02-04T01:06:47.751Z,-0.9
2019-02-04T01:07:48.465Z,-0.9
2019-02-04T01:08:49.160Z,-1.0
2019-02-04T01:09:49.875Z,-0.9
2019-02-04T01:10:50.644Z,-0.9
2019-02-04T01:11:51.349Z,-0.9
2019-02-04T01:12:52.120Z,-1.0
2019-02-04T01:13:52.788Z,-0.9
2019-02-04T01:14:53.496Z,-0.9
2019-02-04T01:15:54.240Z,-0.9
2019-02-04T01:17:03.233Z,-1.0
2019-02-04T01:17:55.675Z,-0.9
2019-02-04T01:18:56.405Z,-1.0
2019-02-04T01:19:57.370Z,-0.9
2019-02-04T01:20:58.226Z,-0.8
2019-02-04T01:21:58.929Z,-0.8
2019-02-04T01:22:59.635Z,-0.6
2019-02-04T01:24:00.349Z,-0.3
2019-02-04T01:25:01.065Z,-0.3
2019-02-04T01:26:01.864Z,-0.4
2019-02-04T01:27:02.566Z,-0.5
2019-02-04T01:28:03.269Z,-0.6
2019-02-04T01:29:03.986Z,-0.6
2019-02-04T01:30:04.950Z,-0.6
2019-02-04T01:31:05.654Z,-0.6
2019-02-04T01:32:06.373Z,-0.6
2019-02-04T01:33:07.077Z,-0.6
2019-02-04T01:34:07.784Z,-0.6
2019-02-04T01:35:08.498Z,-0.5
2019-02-04T01:36:09.208Z,-0.5
2019-02-04T01:37:09.915Z,-0.5
2019-02-04T01:38:10.725Z,-0.4
2019-02-04T01:39:11.443Z,-0.5
2019-02-04T01:40:12.149Z,-0.5
2019-02-04T01:41:12.863Z,-0.4
2019-02-04T01:42:13.569Z,-0.6
2019-02-04T01:43:14.273Z,-0.5
2019-02-04T01:44:14.988Z,-0.6
2019-02-04T01:45:15.688Z,-0.6
2019-02-04T01:46:16.442Z,-0.6
2019-02-04T01:47:17.154Z,-0.5
2019-02-04T01:48:17.870Z,-0.5
2019-02-04T01:49:18.568Z,-0.6
2019-02-04T01:50:19.286Z,-0.5
2019-02-04T01:51:20.050Z,-0.7
2019-02-04T01:52:20.751Z,-0.7
2019-02-04T01:53:21.463Z,-0.7
2019-02-04T01:54:22.161Z,-0.7
2019-02-04T01:55:22.867Z,-0.8
2019-02-04T01:56:23.582Z,-0.6
2019-02-04T01:57:24.287Z,-0.7
2019-02-04T01:58:24.986Z,-0.6
2019-02-04T01:59:25.708Z,-0.7
2019-02-04T02:00:26.424Z,-0.8
2019-02-04T02:01:27.155Z,-0.8
2019-02-04T02:02:28.390Z,-0.9
2019-02-04T02:03:29.101Z,-0.9
2019-02-04T02:04:29.832Z,-0.9
2019-02-04T02:05:30.585Z,-1.0
2019-02-04T02:07:32.249Z,-0.7
2019-02-04T02:08:33.320Z,-0.7
2019-02-04T02:09:34.388Z,-0.6
2019-02-04T02:10:35.826Z,-0.7
2019-02-04T02:11:36.527Z,-0.7
2019-02-04T02:12:37.231Z,-0.8
2019-02-04T02:13:37.944Z,-0.7
2019-02-04T02:14:38.742Z,-0.7
2019-02-04T02:15:39.414Z,-0.7
2019-02-04T02:16:40.122Z,-0.7
2019-02-04T02:17:41.084Z,-0.7
2019-02-04T02:18:41.794Z,-0.6
2019-02-04T02:19:42.541Z,-0.6
2019-02-04T02:20:43.249Z,-0.5
2019-02-04T02:21:43.960Z,-0.3
2019-02-04T02:22:44.677Z,-0.4
2019-02-04T02:23:45.381Z,-0.5
2019-02-04T02:24:46.090Z,-0.4
2019-02-04T02:25:46.798Z,-0.2
2019-02-04T02:26:47.503Z,0.0
2019-02-04T02:27:48.212Z,0.2
2019-02-04T02:28:48.918Z,0.2
2019-02-04T02:29:49.629Z,0.1
2019-02-04T02:30:50.580Z,0.1
2019-02-04T02:31:51.418Z,0.2
2019-02-04T02:32:52.096Z,0.3
2019-02-04T02:33:52.811Z,0.3
2019-02-04T02:34:53.526Z,0.4
2019-02-04T02:35:54.241Z,0.3
2019-02-04T02:36:55.071Z,0.3
2019-02-04T02:37:55.762Z,0.3
2019-02-04T02:38:56.721Z,0.3
2019-02-04T02:39:57.433Z,0.3
2019-02-04T02:40:58.131Z,0.3
2019-02-04T02:41:58.885Z,0.3
2019-02-04T02:42:59.596Z,0.3
2019-02-04T02:44:00.307Z,0.3
2019-02-04T02:45:01.004Z,0.3
2019-02-04T02:46:01.719Z,0.3
2019-02-04T02:47:02.473Z,0.4
2019-02-04T02:48:03.190Z,0.4
2019-02-04T02:49:03.911Z,0.4
2019-02-04T02:50:04.626Z,0.4
2019-02-04T02:51:05.337Z,0.4
2019-02-04T02:52:06.035Z,0.4
2019-02-04T02:53:06.746Z,0.3
2019-02-04T02:54:07.449Z,0.4
2019-02-04T02:55:08.160Z,0.4
2019-02-04T02:56:08.869Z,0.3
2019-02-04T02:57:09.684Z,0.3
2019-02-04T02:58:10.407Z,0.3
2019-02-04T02:59:11.111Z,0.3
2019-02-04T03:00:11.819Z,0.3
2019-02-04T03:01:12.527Z,0.3
2019-02-04T03:02:13.273Z,0.1
2019-02-04T03:03:13.948Z,0.2
2019-02-04T03:04:14.660Z,0.2
2019-02-04T03:05:15.388Z,0.2
2019-02-04T03:06:16.078Z,0.2
2019-02-04T03:07:16.785Z,0.2
2019-02-04T03:08:17.482Z,0.2
2019-02-04T03:09:18.243Z,0.2
2019-02-04T03:10:18.953Z,0.1
2019-02-04T03:11:19.653Z,0.1
2019-02-04T03:12:20.370Z,0.1
2019-02-04T03:13:21.131Z,0.1
2019-02-04T03:14:21.981Z,0.2
2019-02-04T03:15:22.685Z,0.1
2019-02-04T03:16:23.390Z,0.2
2019-02-04T03:17:24.093Z,0.2
2019-02-04T03:18:24.802Z,0.3
2019-02-04T03:19:25.507Z,0.2
2019-02-04T03:20:26.204Z,0.2
2019-02-04T03:21:26.914Z,0.3
2019-02-04T03:22:27.630Z,0.1
2019-02-04T03:23:28.336Z,0.2
2019-02-04T03:24:29.053Z,0.3
2019-02-04T03:25:29.769Z,0.2
2019-02-04T03:26:30.475Z,0.2
2019-02-04T03:27:31.197Z,0.2
2019-02-04T03:28:31.900Z,0.3
2019-02-04T03:29:32.609Z,0.3
2019-02-04T03:30:33.344Z,0.2
2019-02-04T03:31:34.045Z,0.2
2019-02-04T03:32:34.756Z,0.3
2019-02-04T03:33:35.515Z,0.2
2019-02-04T03:34:36.173Z,0.4
2019-02-04T03:35:36.881Z,0.4
2019-02-04T03:36:37.596Z,0.4
2019-02-04T03:37:38.298Z,0.4
2019-02-04T03:38:39.002Z,0.4
2019-02-04T03:39:39.703Z,0.3
2019-02-04T03:40:40.411Z,0.4
2019-02-04T03:41:41.125Z,0.5
2019-02-04T03:42:41.830Z,0.4
2019-02-04T03:43:42.539Z,0.4
2019-02-04T03:44:43.259Z,0.4
2019-02-04T03:45:44.019Z,0.5
2019-02-04T03:46:44.710Z,0.5
2019-02-04T03:47:45.415Z,0.5
2019-02-04T03:48:46.131Z,0.6
2019-02-04T03:49:46.840Z,0.5
2019-02-04T03:50:47.564Z,0.6
2019-02-04T03:51:48.356Z,0.6
2019-02-04T03:52:48.977Z,0.7
2019-02-04T03:53:49.678Z,0.8
2019-02-04T03:54:50.395Z,0.8
2019-02-04T03:55:51.143Z,0.8
2019-02-04T03:56:51.860Z,0.8
2019-02-04T03:57:52.560Z,0.9
2019-02-04T03:58:53.285Z,0.8
2019-02-04T03:59:53.993Z,0.9
2019-02-04T04:00:54.693Z,1.0
2019-02-04T04:01:55.406Z,0.9
2019-02-04T04:02:56.123Z,0.9
2019-02-04T04:03:56.833Z,1.0
2019-02-04T04:04:57.540Z,1.0
2019-02-04T04:05:58.258Z,1.0
2019-02-04T04:06:58.963Z,1.0
2019-02-04T04:07:59.665Z,1.0
2019-02-04T04:09:00.417Z,1.0
2019-02-04T04:10:01.115Z,1.0
2019-02-04T04:11:01.872Z,1.0
2019-02-04T04:12:02.573Z,1.0
2019-02-04T04:13:03.286Z,1.0
2019-02-04T04:14:03.975Z,1.0
2019-02-04T04:15:04.696Z,1.0
2019-02-04T04:16:05.413Z,1.0
2019-02-04T04:17:06.113Z,1.1
2019-02-04T04:18:15.506Z,1.1
2019-02-04T04:19:07.602Z,1.1
2019-02-04T04:20:08.311Z,1.2
2019-02-04T04:21:09.020Z,1.1
2019-02-04T04:22:09.721Z,1.1
2019-02-04T04:23:10.439Z,1.2
2019-02-04T04:24:11.153Z,1.2
2019-02-04T04:25:11.861Z,1.1
2019-02-04T04:26:12.566Z,1.1
2019-02-04T04:27:13.269Z,1.1
2019-02-04T04:28:13.986Z,1.2
2019-02-04T04:29:14.696Z,1.2
2019-02-04T04:30:15.414Z,1.2
2019-02-04T04:31:16.112Z,1.2
2019-02-04T04:32:16.826Z,1.1
2019-02-04T04:33:17.529Z,1.2
2019-02-04T04:34:18.238Z,1.2
2019-02-04T04:35:19.827Z,1.3
2019-02-04T04:36:21.852Z,1.2
2019-02-04T04:37:22.683Z,1.2
2019-02-04T04:38:24.157Z,1.1
2019-02-04T04:39:25.350Z,1.2
2019-02-04T04:40:26.049Z,1.2
2019-02-04T04:41:26.764Z,1.3
2019-02-04T04:42:27.470Z,1.3
2019-02-04T04:43:28.232Z,1.3
2019-02-04T04:44:28.889Z,1.3
2019-02-04T04:45:29.856Z,1.3
2019-02-04T04:46:30.551Z,1.3
2019-02-04T04:47:31.253Z,1.3
2019-02-04T04:48:31.972Z,1.3
2019-02-04T04:49:32.687Z,1.4
2019-02-04T04:50:33.405Z,1.4
2019-02-04T04:51:34.113Z,1.3
2019-02-04T04:52:34.834Z,1.5
2019-02-04T04:53:35.538Z,1.4
2019-02-04T04:54:36.250Z,1.4
2019-02-04T04:55:36.957Z,1.4
2019-02-04T04:56:37.670Z,1.4
2019-02-04T04:57:38.391Z,1.4
2019-02-04T04:58:40.800Z,1.4
2019-02-04T04:59:39.811Z,1.4
2019-02-04T05:00:40.524Z,1.4
2019-02-04T05:01:41.263Z,1.4
2019-02-04T05:02:42.125Z,1.4
2019-02-04T05:03:42.839Z,1.4
2019-02-04T05:04:43.558Z,1.4
2019-02-04T05:05:44.270Z,1.4
2019-02-04T05:06:45.012Z,1.4
2019-02-04T05:07:45.722Z,1.3
2019-02-04T05:08:46.428Z,1.4
2019-02-04T05:09:47.149Z,1.3
2019-02-04T05:10:47.863Z,1.3
2019-02-04T05:11:48.571Z,1.4
2019-02-04T05:12:49.353Z,1.4
2019-02-04T05:13:50.058Z,1.4
2019-02-04T05:14:50.759Z,1.4
2019-02-04T05:15:51.716Z,1.4
2019-02-04T05:16:52.422Z,1.5
2019-02-04T05:17:53.180Z,1.5
2019-02-04T05:18:53.856Z,1.4
2019-02-04T05:19:54.567Z,1.5
2019-02-04T05:20:55.275Z,1.4
2019-02-04T05:21:55.985Z,1.4
2019-02-04T05:22:56.695Z,1.3
2019-02-04T05:23:57.411Z,1.5
2019-02-04T05:24:58.116Z,1.4
2019-02-04T05:25:58.830Z,1.5
2019-02-04T05:26:59.532Z,1.4
2019-02-04T05:28:00.241Z,1.4
2019-02-04T05:29:00.947Z,1.4
2019-02-04T05:30:01.659Z,1.4
2019-02-04T05:31:02.378Z,1.4
2019-02-04T05:32:03.084Z,1.4
2019-02-04T05:33:03.795Z,1.4
2019-02-04T05:34:04.496Z,1.4
2019-02-04T05:35:05.221Z,1.3
2019-02-04T05:36:05.933Z,1.3
2019-02-04T05:37:06.636Z,1.3
2019-02-04T05:38:07.339Z,1.3
2019-02-04T05:39:08.204Z,1.3
2019-02-04T05:40:08.801Z,1.3
2019-02-04T05:41:09.511Z,1.3
2019-02-04T05:42:10.218Z,1.2
2019-02-04T05:43:10.922Z,1.3
2019-02-04T05:44:11.635Z,1.1
2019-02-04T05:45:12.346Z,1.3
2019-02-04T05:46:13.057Z,1.2
2019-02-04T05:47:13.768Z,1.1
2019-02-04T05:48:14.486Z,1.2
2019-02-04T05:49:15.283Z,1.1
2019-02-04T05:50:17.392Z,1.1
2019-02-04T05:51:16.717Z,1.2
2019-02-04T05:52:17.438Z,1.1
2019-02-04T05:53:18.141Z,1.1
2019-02-04T05:54:18.855Z,1.1
2019-02-04T05:55:19.576Z,1.1
2019-02-04T05:56:20.274Z,1.1
2019-02-04T05:57:21.065Z,1.1
2019-02-04T05:58:21.693Z,1.1
2019-02-04T05:59:22.403Z,1.1
2019-02-04T06:00:23.115Z,1.1
2019-02-04T06:01:23.834Z,1.1
2019-02-04T06:02:24.537Z,1.0
2019-02-04T06:03:25.251Z,0.9
2019-02-04T06:04:25.958Z,0.9
2019-02-04T06:05:26.677Z,0.8
2019-02-04T06:06:27.384Z,1.0
2019-02-04T06:07:28.088Z,1.0
2019-02-04T06:08:28.805Z,1.0
2019-02-04T06:09:29.515Z,1.0
2019-02-04T06:10:30.225Z,1.1
2019-02-04T06:11:30.954Z,1.1
2019-02-04T06:12:31.650Z,1.1
2019-02-04T06:13:32.364Z,1.0
2019-02-04T06:14:33.119Z,1.0
2019-02-04T06:15:33.824Z,1.2
2019-02-04T06:16:34.553Z,1.1
2019-02-04T06:17:35.270Z,1.2
2019-02-04T06:18:35.994Z,1.1
2019-02-04T06:19:36.750Z,1.1
2019-02-04T06:20:37.466Z,1.1
2019-02-04T06:21:38.167Z,1.1
2019-02-04T06:22:38.887Z,1.2
2019-02-04T06:23:39.602Z,1.2
2019-02-04T06:24:40.575Z,1.2
2019-02-04T06:25:41.277Z,1.1
2019-02-04T06:26:41.988Z,1.2
2019-02-04T06:27:42.692Z,1.1
2019-02-04T06:28:43.401Z,1.2
2019-02-04T06:29:44.110Z,1.1
2019-02-04T06:30:45.295Z,1.1
2019-02-04T06:31:46.037Z,1.0
2019-02-04T06:32:46.826Z,1.0
2019-02-04T06:33:47.463Z,1.1
2019-02-04T06:34:48.180Z,1.0
2019-02-04T06:35:49.135Z,1.0
2019-02-04T06:36:49.905Z,1.2
2019-02-04T06:37:50.618Z,1.1
2019-02-04T06:38:51.323Z,1.1
2019-02-04T06:39:52.030Z,1.1
2019-02-04T06:40:53.665Z,1.1
2019-02-04T06:41:54.609Z,1.0
2019-02-04T06:42:55.438Z,1.0
2019-02-04T06:43:56.047Z,1.0
2019-02-04T06:44:56.760Z,1.0
2019-02-04T06:45:57.478Z,1.0
2019-02-04T06:46:58.342Z,1.0
2019-02-04T06:47:59.051Z,0.9
2019-02-04T06:48:59.763Z,1.1
2019-02-04T06:50:00.474Z,1.0
2019-02-04T06:51:01.187Z,1.0
2019-02-04T06:52:01.891Z,1.0
2019-02-04T06:53:02.614Z,1.0
2019-02-04T06:54:03.369Z,1.1
2019-02-04T06:55:04.093Z,1.0
2019-02-04T06:56:04.796Z,1.1
2019-02-04T06:57:05.503Z,1.2
2019-02-04T06:58:06.206Z,1.1
2019-02-04T06:59:06.968Z,1.1
2019-02-04T07:00:07.684Z,1.1
2019-02-04T07:01:08.415Z,1.1
2019-02-04T07:02:09.107Z,1.1
2019-02-04T07:03:09.836Z,1.1
2019-02-04T07:04:10.695Z,1.1
2019-02-04T07:05:11.409Z,1.0
2019-02-04T07:06:12.112Z,1.1
2019-02-04T07:07:15.044Z,1.0
2019-02-04T07:08:13.529Z,0.9
2019-02-04T07:09:14.245Z,0.9
2019-02-04T07:10:14.978Z,0.9
2019-02-04T07:11:15.681Z,0.8
2019-02-04T07:12:16.402Z,0.8
2019-02-04T07:13:17.115Z,0.7
2019-02-04T07:14:17.828Z,0.8
2019-02-04T07:15:18.543Z,0.8
2019-02-04T07:16:19.259Z,0.7
2019-02-04T07:17:19.977Z,0.7
2019-02-04T07:18:20.698Z,0.7
2019-02-04T07:19:24.446Z,0.6
2019-02-04T07:20:22.122Z,0.8
2019-02-04T07:21:22.936Z,0.9
2019-02-04T07:22:23.653Z,0.9
2019-02-04T07:23:24.375Z,0.8
2019-02-04T07:24:25.071Z,0.9
2019-02-04T07:25:25.795Z,0.8
2019-02-04T07:26:26.610Z,1.0
2019-02-04T07:27:27.329Z,1.1
2019-02-04T07:28:28.036Z,1.0
2019-02-04T07:29:28.741Z,1.0
2019-02-04T07:30:29.461Z,1.0
2019-02-04T07:31:30.211Z,0.8
2019-02-04T07:32:30.920Z,0.8
2019-02-04T07:33:31.641Z,0.8
2019-02-04T07:34:32.341Z,0.9
2019-02-04T07:35:33.068Z,0.8
2019-02-04T07:36:33.833Z,0.8
2019-02-04T07:37:34.531Z,0.8
2019-02-04T07:38:35.242Z,0.8
2019-02-04T07:39:35.965Z,0.9
2019-02-04T07:40:36.668Z,1.0
2019-02-04T07:41:37.380Z,1.1
2019-02-04T07:42:38.096Z,1.2
2019-02-04T07:43:39.066Z,1.2
2019-02-04T07:44:39.781Z,1.4
2019-02-04T07:45:40.489Z,1.4
2019-02-04T07:46:41.208Z,1.4
2019-02-04T07:47:41.932Z,1.4
2019-02-04T07:48:42.639Z,1.5
2019-02-04T07:49:43.357Z,1.7
2019-02-04T07:50:44.075Z,1.7
2019-02-04T07:51:44.786Z,1.7
2019-02-04T07:52:45.596Z,1.8
2019-02-04T07:53:46.313Z,1.8
2019-02-04T07:54:47.026Z,1.8
2019-02-04T07:55:47.736Z,2.0
2019-02-04T07:56:48.466Z,1.9
2019-02-04T07:57:49.222Z,2.0
2019-02-04T07:58:49.950Z,2.0
2019-02-04T07:59:50.661Z,2.1
2019-02-04T08:00:51.376Z,2.2
2019-02-04T08:01:52.092Z,2.2
2019-02-04T08:02:52.809Z,2.3
2019-02-04T08:03:53.523Z,2.3
2019-02-04T08:04:54.237Z,2.3
2019-02-04T08:05:54.948Z,2.2
2019-02-04T08:06:55.660Z,2.3
2019-02-04T08:07:56.379Z,2.2
2019-02-04T08:08:57.136Z,2.3
2019-02-04T08:09:57.860Z,2.3
2019-02-04T08:10:58.580Z,2.2
2019-02-04T08:11:59.286Z,2.3
2019-02-04T08:13:01.848Z,2.3
2019-02-04T08:14:00.709Z,2.4
2019-02-04T08:15:01.422Z,2.4
2019-02-04T08:16:02.125Z,2.3
2019-02-04T08:17:02.842Z,2.4
2019-02-04T08:18:03.553Z,2.5
2019-02-04T08:19:04.281Z,2.4
2019-02-04T08:20:04.987Z,2.5
2019-02-04T08:21:05.702Z,2.7
2019-02-04T08:22:06.415Z,2.6
2019-02-04T08:23:07.128Z,2.7
2019-02-04T08:24:07.851Z,2.6
2019-02-04T08:25:08.567Z,2.7
2019-02-04T08:26:09.276Z,2.6
2019-02-04T08:27:09.985Z,2.8
2019-02-04T08:28:10.940Z,2.8
2019-02-04T08:29:11.645Z,2.8
2019-02-04T08:30:12.420Z,2.9
2019-02-04T08:31:13.131Z,3.0
2019-02-04T08:32:13.853Z,3.1
2019-02-04T08:33:14.576Z,3.1
2019-02-04T08:34:15.288Z,3.2
2019-02-04T08:35:16.006Z,3.2
2019-02-04T08:36:16.714Z,3.3
2019-02-04T08:37:17.438Z,3.3
2019-02-04T08:38:18.162Z,3.3
2019-02-04T08:39:18.887Z,3.3
2019-02-04T08:40:19.599Z,3.4
2019-02-04T08:41:20.416Z,3.4
2019-02-04T08:42:21.126Z,3.3
2019-02-04T08:43:21.846Z,3.4
2019-02-04T08:44:22.560Z,3.4
2019-02-04T08:45:23.277Z,3.5
2019-02-04T08:46:24.001Z,3.5
2019-02-04T08:47:24.712Z,3.6
2019-02-04T08:48:25.425Z,3.6
2019-02-04T08:49:26.144Z,3.6
2019-02-04T08:50:26.864Z,3.6
2019-02-04T08:51:27.590Z,3.5
2019-02-04T08:52:28.304Z,3.5
2019-02-04T08:53:29.025Z,3.4
2019-02-04T08:54:29.748Z,3.5
2019-02-04T08:55:30.463Z,3.4
2019-02-04T08:56:31.177Z,3.5
2019-02-04T08:57:31.902Z,3.6
2019-02-04T08:58:32.659Z,3.5
2019-02-04T08:59:33.391Z,3.5
2019-02-04T09:00:34.110Z,3.6
2019-02-04T09:01:34.828Z,3.7
2019-02-04T09:02:35.533Z,3.6
2019-02-04T09:03:36.241Z,3.7
2019-02-04T09:04:37.192Z,3.8
2019-02-04T09:05:37.694Z,3.7
2019-02-04T09:06:38.441Z,3.6
2019-02-04T09:07:39.143Z,3.8
2019-02-04T09:08:39.965Z,3.9
2019-02-04T09:09:40.688Z,3.8
2019-02-04T09:10:41.403Z,4.0
2019-02-04T09:11:42.124Z,3.9
2019-02-04T09:12:42.846Z,4.0
2019-02-04T09:13:43.550Z,4.0
2019-02-04T09:14:44.269Z,4.1
2019-02-04T09:15:44.979Z,4.1
2019-02-04T09:16:45.706Z,4.1
2019-02-04T09:17:46.428Z,4.2
2019-02-04T09:18:47.150Z,4.3
2019-02-04T09:19:47.880Z,4.3
2019-02-04T09:20:48.691Z,4.3
2019-02-04T09:21:49.415Z,4.3
2019-02-04T09:22:50.120Z,4.3
2019-02-04T09:23:50.851Z,4.3
2019-02-04T09:24:51.566Z,4.4
2019-02-04T09:25:52.384Z,4.3
2019-02-04T09:26:53.115Z,4.3
2019-02-04T09:27:53.823Z,4.3
2019-02-04T09:28:54.539Z,4.4
2019-02-04T09:29:55.265Z,4.3
2019-02-04T09:30:55.976Z,4.3
2019-02-04T09:31:56.693Z,4.3
2019-02-04T09:32:57.507Z,4.2
2019-02-04T09:33:58.228Z,4.3
2019-02-04T09:34:58.953Z,4.3
2019-02-04T09:35:59.667Z,4.3
2019-02-04T09:37:00.385Z,4.4
2019-02-04T09:38:01.110Z,4.4
2019-02-04T09:39:01.828Z,4.5
2019-02-04T09:40:02.543Z,4.4
2019-02-04T09:41:03.289Z,4.4
2019-02-04T09:42:03.986Z,4.4
2019-02-04T09:43:04.699Z,4.5
2019-02-04T09:44:05.423Z,4.5
2019-02-04T09:45:06.129Z,4.4
2019-02-04T09:46:06.866Z,4.4
2019-02-04T09:47:07.589Z,4.6
2019-02-04T09:48:08.304Z,4.7
2019-02-04T09:49:09.062Z,4.8
2019-02-04T09:50:21.199Z,4.8
2019-02-04T09:51:10.487Z,4.6
2019-02-04T09:52:11.212Z,4.7
2019-02-04T09:53:11.929Z,4.7
2019-02-04T09:54:12.695Z,4.7
2019-02-04T09:55:13.417Z,4.7
2019-02-04T09:56:14.136Z,4.8
2019-02-04T09:57:14.844Z,4.9
2019-02-04T09:58:15.553Z,4.8
2019-02-04T09:59:16.273Z,4.9
2019-02-04T10:00:17.006Z,4.8
2019-02-04T10:01:17.727Z,4.8
2019-02-04T10:02:18.447Z,5.0
2019-02-04T10:03:19.420Z,4.9
2019-02-04T10:04:20.127Z,4.9
2019-02-04T10:05:20.851Z,4.9
2019-02-04T10:06:21.571Z,5.0
2019-02-04T10:07:22.301Z,5.1
2019-02-04T10:08:23.018Z,5.2
2019-02-04T10:09:23.740Z,5.2
2019-02-04T10:10:24.485Z,5.2
2019-02-04T10:11:25.194Z,5.2
2019-02-04T10:12:25.906Z,5.2
2019-02-04T10:13:26.622Z,5.2
2019-02-04T10:14:27.341Z,5.1
2019-02-04T10:15:28.057Z,5.2
2019-02-04T10:16:28.854Z,5.2
2019-02-04T10:17:29.541Z,5.2
2019-02-04T10:18:30.253Z,5.4
2019-02-04T10:19:30.994Z,5.3
2019-02-04T10:20:34.442Z,5.1
2019-02-04T10:21:33.359Z,5.2
2019-02-04T10:22:34.193Z,5.2
2019-02-04T10:23:34.822Z,5.4
2019-02-04T10:24:35.537Z,5.3
2019-02-04T10:25:36.254Z,5.3
2019-02-04T10:26:36.950Z,5.2
2019-02-04T10:27:37.721Z,5.3
2019-02-04T10:28:38.391Z,5.2
2019-02-04T10:29:39.131Z,5.2
2019-02-04T10:30:39.856Z,5.2
2019-02-04T10:31:40.536Z,5.3
2019-02-04T10:32:41.678Z,5.3
2019-02-04T10:33:41.954Z,5.1
2019-02-04T10:34:42.691Z,5.3
2019-02-04T10:35:43.428Z,5.3
2019-02-04T10:36:44.153Z,5.4
2019-02-04T10:37:44.948Z,5.3
2019-02-04T10:38:45.669Z,5.3
2019-02-04T10:39:46.367Z,5.1
2019-02-04T10:40:47.091Z,5.0
2019-02-04T10:41:47.828Z,5.2
2019-02-04T10:42:48.578Z,5.1
2019-02-04T10:43:49.302Z,5.1
2019-02-04T10:44:50.053Z,5.2
2019-02-04T10:45:50.754Z,5.3
2019-02-04T10:46:51.475Z,5.3
2019-02-04T10:47:52.268Z,5.3
2019-02-04T10:48:52.979Z,5.4
2019-02-04T10:49:53.740Z,5.4
2019-02-04T10:50:54.457Z,5.2
2019-02-04T10:51:55.170Z,5.2
2019-02-04T10:52:55.898Z,5.3
2019-02-04T10:53:56.615Z,5.2
2019-02-04T10:54:57.397Z,5.2
2019-02-04T10:55:58.052Z,5.2
2019-02-04T10:56:58.806Z,5.2
2019-02-04T10:57:59.524Z,5.3
2019-02-04T10:59:00.238Z,5.4
2019-02-04T11:00:00.909Z,5.3
2019-02-04T11:01:01.792Z,5.5
2019-02-04T11:02:02.431Z,5.4
2019-02-04T11:03:03.109Z,5.5
2019-02-04T11:04:03.798Z,5.5
2019-02-04T11:05:04.602Z,5.4
2019-02-04T11:06:05.288Z,5.4
2019-02-04T11:07:06.044Z,5.3
2019-02-04T11:08:06.732Z,5.4
2019-02-04T11:09:07.454Z,5.5
2019-02-04T11:10:08.284Z,5.3
2019-02-04T11:11:08.994Z,5.3
2019-02-04T11:12:09.710Z,5.4
2019-02-04T11:13:10.431Z,5.4
2019-02-04T11:14:11.170Z,5.5
2019-02-04T11:15:12.013Z,5.4
2019-02-04T11:16:12.634Z,5.4
2019-02-04T11:17:13.351Z,5.4
2019-02-04T11:18:14.089Z,5.4
2019-02-04T11:19:14.798Z,5.4
2019-02-04T11:20:15.682Z,5.4
2019-02-04T11:21:16.270Z,5.4
2019-02-04T11:22:16.981Z,5.6
2019-02-04T11:23:17.710Z,5.6
2019-02-04T11:24:18.463Z,5.5
2019-02-04T11:25:19.132Z,5.6
2019-02-04T11:26:19.882Z,5.6
2019-02-04T11:27:20.577Z,5.6
2019-02-04T11:28:21.314Z,5.6
2019-02-04T11:29:22.020Z,5.7
2019-02-04T11:30:22.738Z,5.6
2019-02-04T11:31:23.562Z,5.7
2019-02-04T11:32:24.204Z,5.7
2019-02-04T11:33:24.923Z,5.7
2019-02-04T11:34:25.617Z,5.7
2019-02-04T11:35:26.326Z,5.6
2019-02-04T11:36:27.065Z,5.6
2019-02-04T11:37:27.792Z,5.7
2019-02-04T11:38:28.625Z,5.6
2019-02-04T11:39:29.295Z,5.7
2019-02-04T11:40:30.007Z,5.6
2019-02-04T11:41:30.738Z,5.7
2019-02-04T11:42:31.447Z,5.6
2019-02-04T11:43:32.195Z,5.7
2019-02-04T11:44:32.919Z,5.6
2019-02-04T11:45:33.634Z,5.6
2019-02-04T11:46:34.326Z,5.6
2019-02-04T11:47:35.039Z,5.6
2019-02-04T11:48:35.758Z,5.7
2019-02-04T11:49:36.467Z,5.7
2019-02-04T11:50:37.191Z,5.7
2019-02-04T11:51:37.909Z,5.6
2019-02-04T11:52:38.617Z,5.6
2019-02-04T11:53:39.333Z,5.6
2019-02-04T11:54:40.065Z,5.5
2019-02-04T11:55:40.790Z,5.7
2019-02-04T11:56:41.501Z,5.6
2019-02-04T11:57:42.219Z,5.7
2019-02-04T11:58:42.987Z,5.8
2019-02-04T11:59:43.697Z,5.8
2019-02-04T12:00:44.412Z,5.9
2019-02-04T12:01:45.131Z,6.0
2019-02-04T12:02:45.852Z,5.7
2019-02-04T12:03:46.563Z,5.6
2019-02-04T12:04:47.281Z,5.6
2019-02-04T12:05:47.996Z,5.6
2019-02-04T12:06:48.973Z,5.7
2019-02-04T12:07:49.691Z,5.6
2019-02-04T12:08:50.417Z,5.6
2019-02-04T12:09:51.141Z,5.7
2019-02-04T12:10:52.118Z,5.7
2019-02-04T12:11:55.627Z,5.8
2019-02-04T12:12:53.640Z,5.7
2019-02-04T12:13:54.372Z,5.7
2019-02-04T12:14:55.083Z,5.7
2019-02-04T12:15:55.794Z,5.6
2019-02-04T12:16:59.097Z,5.7
2019-02-04T12:17:57.288Z,5.7
2019-02-04T12:18:58.012Z,5.7
2019-02-04T12:19:58.725Z,5.8
2019-02-04T12:20:59.521Z,5.9
2019-02-04T12:22:02.729Z,5.9
2019-02-04T12:23:00.995Z,5.8
2019-02-04T12:24:01.703Z,6.0
2019-02-04T12:25:02.416Z,6.0
2019-02-04T12:26:03.128Z,6.0
2019-02-04T12:27:03.845Z,6.0
2019-02-04T12:28:04.569Z,6.1
2019-02-04T12:29:05.289Z,6.1
2019-02-04T12:30:05.999Z,5.7
2019-02-04T12:31:06.717Z,5.8
2019-02-04T12:32:07.432Z,5.9
2019-02-04T12:33:08.150Z,6.1
2019-02-04T12:34:08.873Z,6.1
2019-02-04T12:35:09.586Z,6.1
2019-02-04T12:36:10.300Z,6.2
2019-02-04T12:37:11.020Z,6.2
2019-02-04T12:38:11.883Z,6.3
2019-02-04T12:39:12.599Z,6.3
2019-02-04T12:40:13.318Z,6.2
2019-02-04T12:41:14.037Z,6.2
2019-02-04T12:42:14.758Z,6.1
2019-02-04T12:43:15.523Z,6.2
2019-02-04T12:44:16.247Z,6.2
2019-02-04T12:45:16.968Z,6.2
2019-02-04T12:46:17.691Z,6.2
2019-02-04T12:47:18.419Z,6.2
2019-02-04T12:48:19.137Z,6.1
2019-02-04T12:49:20.138Z,6.1
2019-02-04T12:50:20.590Z,6.2
2019-02-04T12:51:32.893Z,6.1
2019-02-04T12:52:22.284Z,6.0
2019-02-04T12:53:23.005Z,5.8
2019-02-04T12:54:26.545Z,5.9
2019-02-04T12:55:24.443Z,5.8
2019-02-04T12:56:25.168Z,5.8
2019-02-04T12:57:25.902Z,5.9
2019-02-04T12:58:26.614Z,5.9
2019-02-04T12:59:27.446Z,5.9
2019-02-04T13:00:28.051Z,6.0
2019-02-04T13:01:28.760Z,5.9
2019-02-04T13:02:29.473Z,5.9
2019-02-04T13:03:30.190Z,5.9
2019-02-04T13:04:30.905Z,6.0
2019-02-04T13:05:31.634Z,5.9
2019-02-04T13:06:32.348Z,5.8
2019-02-04T13:07:33.067Z,5.9
2019-02-04T13:08:33.786Z,5.9
2019-02-04T13:09:34.504Z,5.9
2019-02-04T13:10:35.217Z,5.8
2019-02-04T13:11:35.937Z,5.9
2019-02-04T13:12:36.652Z,5.9
2019-02-04T13:13:37.370Z,5.9
2019-02-04T13:14:38.089Z,5.9
2019-02-04T13:15:38.812Z,5.9
2019-02-04T13:16:39.576Z,5.9
2019-02-04T13:17:40.293Z,5.9
2019-02-04T13:18:40.995Z,6.0
2019-02-04T13:19:41.712Z,5.9
2019-02-04T13:20:42.682Z,5.9
2019-02-04T13:21:45.526Z,5.9
2019-02-04T13:22:44.141Z,6.0
2019-02-04T13:23:44.859Z,5.8
2019-02-04T13:24:45.573Z,5.6
2019-02-04T13:25:46.354Z,5.8
2019-02-04T13:26:47.013Z,5.6
2019-02-04T13:27:47.828Z,5.7
2019-02-04T13:28:48.548Z,5.7
2019-02-04T13:29:49.265Z,5.8
2019-02-04T13:30:49.998Z,5.6
2019-02-04T13:31:50.708Z,5.7
2019-02-04T13:32:51.426Z,5.6
2019-02-04T13:33:52.147Z,5.7
2019-02-04T13:34:52.858Z,5.6
2019-02-04T13:35:53.565Z,5.6
2019-02-04T13:36:54.278Z,5.6
2019-02-04T13:37:54.992Z,5.5
2019-02-04T13:38:55.818Z,5.6
2019-02-04T13:39:56.528Z,5.6
2019-02-04T13:41:07.521Z,5.7
2019-02-04T13:41:57.973Z,5.5
2019-02-04T13:42:58.688Z,5.5
2019-02-04T13:43:59.414Z,5.5
2019-02-04T13:45:00.232Z,5.4
2019-02-04T13:46:00.847Z,5.3
2019-02-04T13:47:01.574Z,5.3
2019-02-04T13:48:02.287Z,5.4
2019-02-04T13:49:03.097Z,5.4
2019-02-04T13:50:03.814Z,5.4
2019-02-04T13:51:04.527Z,5.4
2019-02-04T13:52:05.273Z,5.4
2019-02-04T13:53:05.979Z,5.5